Time;durP1;ratioP1;P1;durP2;ratioP2;P2;SDS_P1;SDS_P2;PMS_P1;PMS_P2;Temp;Humidity;BMP_temperature;BMP_pressure;BME280_temperature;BME280_humidity;BME280_pressure;Samples;Min_cycle;Max_cycle;Signal;HPM_P1;HPM_P2
2021/12/21 00:01:56;;;;;;;;;16.00;14.33;;;;;8.71;48.65;101704.25;6160310;23;45765;-86
2021/12/21 00:04:22;;;;;;;;;25.33;22.67;;;;;8.74;49.22;101704.34;6163900;23;45276;-85
2021/12/21 00:06:54;;;;;;;;;21.00;20.67;;;;;8.97;48.43;101698.13;6160998;23;45278;-85
2021/12/21 00:09:19;;;;;;;;;24.67;23.67;;;;;8.70;48.19;101694.47;6185500;22;47143;-85
2021/12/21 00:11:45;;;;;;;;;22.67;18.67;;;;;8.65;49.29;101686.34;6191863;23;45669;-85
2021/12/21 00:14:25;;;;;;;;;19.67;16.33;;;;;8.72;48.41;101698.97;6194074;23;45315;-86
2021/12/21 00:17:07;;;;;;;;;20.67;18.33;;;;;8.69;48.90;101687.38;6192254;23;45407;-86
2021/12/21 00:25:27;;;;;;;;;21.33;19.00;;;;;8.67;48.35;101678.47;6191888;22;45665;-86
2021/12/21 00:27:53;;;;;;;;;23.67;19.33;;;;;8.69;48.86;101676.78;6189292;23;44737;-86
2021/12/21 00:30:19;;;;;;;;;22.33;14.33;;;;;8.74;48.79;101668.09;6192411;23;45925;-87
2021/12/21 00:32:44;;;;;;;;;16.00;13.00;;;;;8.70;49.36;101686.50;6191617;23;45338;-87
2021/12/21 00:35:11;;;;;;;;;18.67;15.33;;;;;8.84;49.27;101679.97;6189187;23;45744;-87
2021/12/21 00:37:40;;;;;;;;;23.33;20.33;;;;;8.63;49.20;101668.59;6191570;23;45362;-86
2021/12/21 00:40:07;;;;;;;;;18.00;18.00;;;;;8.71;49.62;101685.69;6189126;23;47221;-86
2021/12/21 00:42:33;;;;;;;;;22.33;17.67;;;;;8.62;48.98;101678.25;6189292;23;45366;-86
2021/12/21 00:44:58;;;;;;;;;14.00;11.33;;;;;8.62;49.54;101678.25;6189222;23;45941;-86
2021/12/21 00:47:25;;;;;;;;;16.00;12.67;;;;;8.70;48.99;101670.59;6190812;23;45362;-86
2021/12/21 00:49:58;;;;;;;;;14.00;13.00;;;;;8.58;49.20;101674.63;6213945;22;47062;-86
2021/12/21 00:52:24;;;;;;;;;16.00;14.00;;;;;8.58;49.57;101671.97;6188568;23;45633;-86
2021/12/21 00:54:50;;;;;;;;;15.33;14.33;;;;;8.54;49.62;101674.44;6189523;23;45326;-86
2021/12/21 00:57:16;;;;;;;;;18.00;15.67;;;;;8.46;48.73;101668.84;6190796;23;45508;-86
2021/12/21 00:59:42;;;;;;;;;15.00;13.00;;;;;8.47;49.22;101657.41;6192643;23;45326;-85
2021/12/21 01:02:08;;;;;;;;;16.67;14.67;;;;;8.42;49.30;101669.56;6190307;22;45340;-86
2021/12/21 01:04:46;;;;;;;;;16.33;14.00;;;;;8.38;49.46;101678.22;6191078;23;45330;-86
2021/12/21 01:12:41;;;;;;;;;16.33;14.00;;;;;8.34;49.79;101666.63;6190991;22;45395;-86
2021/12/21 01:17:47;;;;;;;;;10.00;8.33;;;;;8.36;49.69;101653.41;6186787;23;45714;-86
2021/12/21 01:20:29;;;;;;;;;16.67;13.67;;;;;8.52;48.64;101646.97;6187839;23;46863;-86
2021/12/21 01:28:47;;;;;;;;;12.33;10.33;;;;;8.21;49.16;101659.94;6157315;23;45668;-86
2021/12/21 01:36:26;;;;;;;;;11.67;11.67;;;;;8.22;50.09;101660.84;6159837;23;45431;-86
2021/12/21 01:41:36;;;;;;;;;15.33;13.67;;;;;8.28;49.43;101670.75;6158255;23;45445;-86
2021/12/21 01:44:30;;;;;;;;;15.33;11.00;;;;;8.29;49.58;101672.59;6134120;23;45894;-86
2021/12/21 01:49:49;;;;;;;;;14.33;10.33;;;;;8.30;49.80;101663.78;6158685;23;45564;-85
2021/12/21 01:52:21;;;;;;;;;9.67;7.67;;;;;8.41;49.45;101657.19;6133119;23;48203;-85
2021/12/21 01:54:47;;;;;;;;;13.67;12.33;;;;;8.25;49.32;101668.00;6134404;23;45632;-85
2021/12/21 01:57:13;;;;;;;;;11.67;11.67;;;;;8.21;49.23;101670.53;6135157;23;45395;-85
2021/12/21 01:59:41;;;;;;;;;12.33;10.00;;;;;8.31;49.67;101649.69;6159178;23;45484;-86
2021/12/21 02:02:08;;;;;;;;;15.00;13.00;;;;;8.30;49.53;101647.88;6157418;23;45407;-84
2021/12/21 02:04:36;;;;;;;;;13.67;10.00;;;;;8.25;49.67;101654.75;6163136;23;44792;-84
2021/12/21 02:07:03;;;;;;;;;20.33;12.33;;;;;8.28;49.75;101665.47;6190799;22;45294;-84
2021/12/21 02:09:37;;;;;;;;;10.00;10.00;;;;;8.23;49.62;101661.75;6188361;23;45660;-84
2021/12/21 02:12:11;;;;;;;;;17.67;14.00;;;;;8.21;48.98;101646.69;6186745;23;47977;-86
2021/12/21 02:14:37;;;;;;;;;21.67;14.67;;;;;8.18;49.99;101649.22;6186732;23;45390;-86
2021/12/21 02:19:55;;;;;;;;;14.00;14.00;;;;;8.35;49.77;101639.25;6188355;23;45252;-85
2021/12/21 02:22:23;;;;;;;;;17.33;14.00;;;;;8.16;49.69;101648.25;6185371;23;48039;-86
2021/12/21 02:27:41;;;;;;;;;13.00;13.00;;;;;8.14;50.28;101639.34;6187067;23;45819;-84
2021/12/21 02:30:15;;;;;;;;;14.00;14.00;;;;;8.13;50.11;101632.22;6185703;23;45359;-85
2021/12/21 02:32:40;;;;;;;;;13.00;10.67;;;;;8.08;50.09;101638.19;6187256;22;45881;-85
2021/12/21 02:35:06;;;;;;;;;17.33;16.67;;;;;8.16;49.84;101640.31;6186571;23;45555;-85
2021/12/21 02:37:32;;;;;;;;;17.33;14.33;;;;;8.05;50.55;101624.84;6188511;23;45351;-86
2021/12/21 02:39:58;;;;;;;;;18.33;16.00;;;;;8.10;50.45;101600.34;6186061;23;45355;-84
2021/12/21 02:42:24;;;;;;;;;19.00;15.67;;;;;8.02;50.81;101620.34;6186102;23;47222;-85
2021/12/21 02:44:50;;;;;;;;;14.33;13.67;;;;;8.11;49.50;101630.38;6188462;22;45523;-85
2021/12/21 02:47:15;;;;;;;;;17.00;13.00;;;;;8.00;50.40;101627.31;6187951;23;45470;-86
2021/12/21 02:49:41;;;;;;;;;18.33;15.00;;;;;7.98;50.47;101624.63;6187024;23;45466;-84
2021/12/21 02:52:07;;;;;;;;;17.00;14.67;;;;;8.17;50.42;101612.97;6187066;23;46917;-84
2021/12/21 02:54:33;;;;;;;;;13.67;13.33;;;;;7.98;50.66;101613.13;6187676;23;45499;-85
2021/12/21 02:56:58;;;;;;;;;16.33;15.67;;;;;8.01;50.64;101613.22;6188062;23;45485;-84
2021/12/21 02:59:23;;;;;;;;;18.00;17.67;;;;;7.98;50.46;101611.38;6187667;23;44894;-85
2021/12/21 03:01:49;;;;;;;;;20.33;18.00;;;;;8.06;50.49;101601.06;6187928;23;48153;-84
2021/12/21 03:04:16;;;;;;;;;18.00;15.33;;;;;8.20;50.92;101605.13;6187002;23;45647;-84
2021/12/21 03:09:43;;;;;;;;;11.67;11.67;;;;;7.90;51.04;101596.03;6188548;22;44770;-85
2021/12/21 03:14:49;;;;;;;;;23.33;18.00;;;;;7.95;50.78;101594.44;6189169;22;45364;-85
2021/12/21 03:17:19;;;;;;;;;22.00;18.00;;;;;8.14;51.03;101610.22;6188461;23;44721;-85
2021/12/21 03:19:45;;;;;;;;;24.33;21.00;;;;;7.93;50.91;101598.78;6187003;23;45386;-85
2021/12/21 03:22:11;;;;;;;;;16.33;16.33;;;;;7.96;50.90;101612.16;6186615;23;48336;-84
2021/12/21 03:24:37;;;;;;;;;18.67;15.67;;;;;7.90;50.94;101599.56;6190266;23;45350;-85
2021/12/21 03:27:03;;;;;;;;;17.67;17.00;;;;;7.90;50.63;101609.28;6186607;23;45280;-85
2021/12/21 03:29:29;;;;;;;;;15.00;14.67;;;;;7.84;50.34;101611.66;6190567;23;45319;-84
2021/12/21 03:31:55;;;;;;;;;19.67;15.67;;;;;7.82;50.61;101612.50;6213302;22;46881;-84
2021/12/21 03:34:21;;;;;;;;;17.00;14.33;;;;;7.82;51.09;101615.16;6191171;23;45302;-85
2021/12/21 03:36:47;;;;;;;;;13.00;10.33;;;;;7.85;50.92;101618.78;6190389;23;45717;-85
2021/12/21 03:39:18;;;;;;;;;13.00;13.00;;;;;7.84;50.90;101609.00;6191707;23;45485;-84
2021/12/21 03:41:48;;;;;;;;;14.67;14.33;;;;;7.98;50.87;101614.00;6189059;22;45971;-85
2021/12/21 03:44:19;;;;;;;;;21.67;14.00;;;;;7.90;50.98;101610.16;6188588;23;45703;-85
2021/12/21 03:46:48;;;;;;;;;14.33;13.00;;;;;7.86;51.06;101607.31;6187973;23;45371;-85
2021/12/21 03:49:53;;;;;;;;;14.33;11.67;;;;;7.76;50.62;101606.97;6185683;23;45422;-85
2021/12/21 03:52:14;;;;;;;;;15.00;14.67;;;;;7.79;51.03;101607.06;6185300;23;45430;-84
2021/12/21 03:54:46;;;;;;;;;15.33;13.00;;;;;7.72;50.72;101615.63;6210352;22;45746;-85
2021/12/21 03:57:12;;;;;;;;;14.67;13.00;;;;;7.50;51.44;101611.22;6189397;23;45352;-85
2021/12/21 03:59:38;;;;;;;;;13.67;11.33;;;;;7.55;51.03;101616.69;6187781;23;45355;-85
2021/12/21 04:02:05;;;;;;;;;15.33;11.67;;;;;7.48;51.47;101609.38;6188916;23;47163;-86
2021/12/21 04:04:31;;;;;;;;;14.00;14.00;;;;;7.48;51.42;101612.91;6213455;22;45664;-84
2021/12/21 04:10:18;;;;;;;;;17.00;15.33;;;;;7.46;51.93;101598.72;6189728;23;45453;-85
2021/12/21 04:12:43;;;;;;;;;13.33;12.67;;;;;7.51;51.93;101598.88;6188379;23;46943;-84
2021/12/21 04:15:09;;;;;;;;;18.33;16.33;;;;;7.47;51.91;101583.72;6189302;23;45670;-84
2021/12/21 04:17:35;;;;;;;;;11.33;11.00;;;;;7.45;51.38;101582.75;6188900;23;45533;-84
2021/12/21 04:20:01;;;;;;;;;14.00;12.00;;;;;7.44;51.35;101594.22;6189495;23;45302;-83
2021/12/21 04:22:28;;;;;;;;;16.67;12.67;;;;;7.37;52.04;101585.09;6192218;23;47207;-84
2021/12/21 04:24:53;;;;;;;;;21.33;17.33;;;;;7.34;51.46;101585.00;6194676;22;45621;-84
2021/12/21 04:27:19;;;;;;;;;18.00;14.00;;;;;7.35;52.04;101592.06;6189707;23;45715;-85
2021/12/21 04:29:44;;;;;;;;;15.67;13.00;;;;;7.35;52.00;101598.28;6190162;23;45329;-84
2021/12/21 04:32:10;;;;;;;;;14.33;13.33;;;;;7.23;52.07;101587.19;6186925;23;47198;-85
2021/12/21 04:34:38;;;;;;;;;10.00;10.00;;;;;7.28;51.96;101593.56;6186982;23;45319;-83
2021/12/21 04:37:03;;;;;;;;;12.00;11.33;;;;;7.18;52.02;101589.63;6188635;22;45347;-85
2021/12/21 04:39:39;;;;;;;;;20.33;16.33;;;;;6.98;52.23;101557.06;6188840;22;45395;-85
2021/12/21 04:42:05;;;;;;;;;12.00;12.00;;;;;7.19;52.28;101595.81;6213549;22;46831;-84
2021/12/21 04:44:31;;;;;;;;;13.00;12.00;;;;;7.03;52.23;101574.88;6190439;22;45428;-84
2021/12/21 04:46:56;;;;;;;;;17.33;16.00;;;;;7.08;52.08;101597.13;6213273;22;45319;-85
2021/12/21 04:49:22;;;;;;;;;14.00;14.00;;;;;7.10;52.25;101603.41;6190242;22;45453;-83
2021/12/21 04:51:47;;;;;;;;;14.00;14.00;;;;;6.86;52.24;101558.31;6190142;22;45381;-83
2021/12/21 04:54:13;;;;;;;;;12.33;12.33;;;;;6.81;52.33;101558.13;6189430;23;45430;-84
2021/12/21 04:56:38;;;;;;;;;13.67;13.33;;;;;6.96;52.50;101576.34;6187725;23;45363;-84
2021/12/21 04:59:04;;;;;;;;;13.33;10.00;;;;;6.77;52.05;101549.16;6187110;23;45771;-84
2021/12/21 05:01:29;;;;;;;;;23.33;18.00;;;;;7.00;52.58;101589.78;6187413;23;47137;-85
2021/12/21 05:03:55;;;;;;;;;13.67;12.33;;;;;6.69;52.54;101533.81;6187357;23;45475;-84
2021/12/21 05:06:20;;;;;;;;;19.67;17.00;;;;;6.74;52.69;101545.47;6189435;23;45302;-84
2021/12/21 05:08:53;;;;;;;;;12.00;12.00;;;;;6.93;52.50;101594.75;6187362;23;45342;-84
2021/12/21 05:11:20;;;;;;;;;11.00;8.00;;;;;6.85;52.97;101570.63;6162336;23;47784;-84
2021/12/21 05:13:46;;;;;;;;;15.00;12.00;;;;;6.63;52.68;101549.41;6161809;23;45635;-83
2021/12/21 05:16:11;;;;;;;;;12.67;9.33;;;;;6.87;52.88;101598.03;6187680;23;45734;-84
2021/12/21 05:18:37;;;;;;;;;13.00;12.67;;;;;6.89;53.10;101595.44;6162858;23;45450;-85
2021/12/21 05:21:03;;;;;;;;;16.33;15.00;;;;;6.89;53.09;101596.38;6160948;23;46902;-84
2021/12/21 05:23:30;;;;;;;;;10.67;10.67;;;;;6.85;53.41;101591.78;6187930;22;45467;-84
2021/12/21 05:25:57;;;;;;;;;13.00;12.00;;;;;6.73;53.21;101562.19;6161912;23;45410;-84
2021/12/21 05:28:22;;;;;;;;;10.00;10.00;;;;;6.82;53.28;101589.00;6159984;23;45770;-85
2021/12/21 05:30:48;;;;;;;;;19.67;17.67;;;;;6.84;53.21;101587.31;6187001;23;45486;-85
2021/12/21 05:33:14;;;;;;;;;13.00;12.00;;;;;6.81;53.20;101590.75;6163345;23;45648;-84
2021/12/21 05:35:40;;;;;;;;;13.00;13.00;;;;;6.71;53.01;101577.97;6164852;23;45435;-84
2021/12/21 05:38:08;;;;;;;;;12.33;10.67;;;;;6.83;53.34;101590.81;6188776;23;45369;-84
2021/12/21 05:40:43;;;;;;;;;15.00;11.33;;;;;6.72;53.52;101589.44;6162736;23;47573;-84
2021/12/21 05:43:11;;;;;;;;;13.67;10.33;;;;;6.84;53.72;101592.59;6162340;23;45709;-84
2021/12/21 05:45:37;;;;;;;;;14.33;13.00;;;;;6.76;53.52;101578.16;6161760;23;45738;-84
2021/12/21 05:48:04;;;;;;;;;16.00;15.67;;;;;6.86;53.66;101596.22;6162397;23;45900;-84
2021/12/21 05:53:53;;;;;;;;;11.33;11.33;;;;;6.90;53.45;101587.56;6188704;23;45378;-84
2021/12/21 05:56:18;;;;;;;;;13.67;13.67;;;;;6.73;53.74;101585.97;6188719;23;45201;-83
2021/12/21 05:58:46;;;;;;;;;16.33;14.33;;;;;6.71;53.52;101585.91;6162865;23;45320;-83
2021/12/21 06:01:18;;;;;;;;;18.67;16.33;;;;;7.00;53.58;101599.44;6161874;23;47786;-85
2021/12/21 06:03:43;;;;;;;;;13.00;13.00;;;;;6.72;53.98;101597.38;6188367;23;45401;-85
2021/12/21 06:06:15;;;;;;;;;12.33;12.00;;;;;6.81;53.82;101600.41;6161916;23;45524;-84
2021/12/21 06:08:45;;;;;;;;;9.00;9.00;;;;;6.84;53.53;101597.88;6188641;23;45418;-84
2021/12/21 06:11:13;;;;;;;;;16.67;13.33;;;;;6.63;54.06;101596.97;6184814;23;47691;-84
2021/12/21 06:26:38;;;;;;;;;16.00;16.00;;;;;6.54;54.06;101602.75;6187467;22;45727;-84
2021/12/21 06:29:04;;;;;;;;;14.33;10.00;;;;;6.54;54.08;101602.75;6214495;22;45824;-85
2021/12/21 06:31:29;;;;;;;;;15.00;13.00;;;;;6.49;54.31;101591.97;6192210;23;46206;-83
2021/12/21 06:33:58;;;;;;;;;13.00;11.33;;;;;6.49;54.41;101599.91;6191024;22;45747;-85
2021/12/21 06:36:23;;;;;;;;;14.00;12.00;;;;;6.50;54.18;101592.88;6191225;22;45831;-85
2021/12/21 06:38:49;;;;;;;;;14.00;10.00;;;;;6.52;54.07;101597.38;6189043;23;45641;-85
2021/12/21 06:41:57;;;;;;;;;17.67;13.33;;;;;6.80;53.51;101595.94;6186502;23;47126;-85
2021/12/21 06:44:23;;;;;;;;;14.00;14.00;;;;;6.41;54.00;101591.63;6187798;23;45404;-84
2021/12/21 06:52:20;;;;;;;;;14.67;12.67;;;;;6.30;54.37;101571.78;6188333;23;45369;-85
2021/12/21 06:54:46;;;;;;;;;19.33;14.33;;;;;6.42;54.11;101581.97;6191949;23;45308;-84
2021/12/21 06:57:18;;;;;;;;;11.67;8.00;;;;;6.23;54.48;101590.81;6214798;22;45402;-85
2021/12/21 06:59:43;;;;;;;;;15.33;15.33;;;;;6.34;54.38;101597.50;6190901;23;45445;-83
2021/12/21 07:02:09;;;;;;;;;12.33;11.67;;;;;6.34;54.59;101588.66;6190034;23;47773;-87
2021/12/21 07:04:35;;;;;;;;;12.33;12.00;;;;;6.25;54.33;101589.16;6186919;23;45430;-84
2021/12/21 07:07:02;;;;;;;;;12.33;9.00;;;;;6.25;54.40;101594.44;6191625;23;45414;-84
2021/12/21 07:09:41;;;;;;;;;15.00;13.00;;;;;6.46;54.72;101597.13;6216392;22;45379;-85
2021/12/21 07:18:07;;;;;;;;;17.33;15.67;;;;;6.31;54.13;101564.75;6192889;23;45438;-85
2021/12/21 07:20:22;;;;;;;;;16.67;15.00;;;;;6.38;54.63;101603.78;6194486;22;45612;-84
2021/12/21 07:23:00;;;;;;;;;14.00;12.67;;;;;6.32;54.71;101599.16;6223613;22;48156;-87
2021/12/21 07:25:37;;;;;;;;;16.00;13.00;;;;;5.97;55.03;101577.31;6190221;22;45225;-87
2021/12/21 07:28:03;;;;;;;;;16.00;16.00;;;;;5.94;54.81;101574.50;6190193;23;45411;-88
2021/12/21 07:30:28;;;;;;;;;19.33;17.33;;;;;6.03;55.18;101608.38;6190708;23;45440;-87
2021/12/21 07:32:53;;;;;;;;;15.00;15.00;;;;;6.03;55.52;101607.50;6190439;23;46936;-86
2021/12/21 07:35:19;;;;;;;;;19.33;12.67;;;;;6.11;55.57;101622.84;6189281;23;45475;-86
2021/12/21 07:41:11;;;;;;;;;22.00;13.33;;;;;5.98;55.01;101575.59;6190726;23;45279;-87
2021/12/21 07:43:37;;;;;;;;;11.67;11.00;;;;;5.92;55.02;101605.22;6187595;23;46949;-85
2021/12/21 07:46:02;;;;;;;;;16.00;16.00;;;;;5.98;55.01;101615.19;6188562;23;45785;-87
2021/12/21 07:48:30;;;;;;;;;13.33;12.00;;;;;5.78;54.96;101575.53;6188557;23;45437;-86
2021/12/21 07:50:57;;;;;;;;;12.67;12.67;;;;;5.71;55.50;101578.69;6191199;23;45413;-85
2021/12/21 07:53:23;;;;;;;;;19.00;15.67;;;;;5.70;55.58;101563.72;6187946;23;48009;-85
2021/12/21 07:55:49;;;;;;;;;11.00;11.00;;;;;5.74;55.45;101572.69;6189159;23;45793;-85
2021/12/21 07:58:16;;;;;;;;;19.67;16.00;;;;;5.72;55.13;101572.59;6192562;23;46044;-85
2021/12/21 08:00:42;;;;;;;;;16.67;13.00;;;;;5.74;55.04;101575.31;6195737;23;44809;-85
2021/12/21 08:03:09;;;;;;;;;19.00;19.00;;;;;5.85;55.31;101610.13;6193344;23;46670;-85
2021/12/21 08:05:36;;;;;;;;;14.00;14.00;;;;;5.97;55.34;101603.72;6192094;23;45691;-85
2021/12/21 08:08:18;;;;;;;;;13.67;13.67;;;;;6.14;55.40;101628.28;6193917;23;45375;-85
2021/12/21 08:10:52;;;;;;;;;15.00;15.00;;;;;5.93;55.29;101629.88;6188351;23;45433;-84
2021/12/21 08:13:20;;;;;;;;;19.67;16.00;;;;;5.84;55.37;101614.50;6192751;22;46052;-86
2021/12/21 08:15:49;;;;;;;;;13.33;13.33;;;;;5.78;55.13;101569.34;6191588;23;45392;-84
2021/12/21 08:18:15;;;;;;;;;15.67;14.67;;;;;5.78;55.16;101601.94;6191661;23;45305;-83
2021/12/21 08:20:42;;;;;;;;;20.00;15.67;;;;;5.96;55.21;101628.31;6193646;23;45721;-84
2021/12/21 08:23:08;;;;;;;;;15.00;13.33;;;;;5.85;55.23;101610.13;6195599;23;45792;-84
2021/12/21 08:25:46;;;;;;;;;18.00;16.00;;;;;5.98;54.90;101608.19;6193394;23;44781;-85
2021/12/21 08:28:12;;;;;;;;;14.67;14.67;;;;;5.69;55.52;101605.84;6196522;23;45317;-85
2021/12/21 08:34:13;;;;;;;;;14.67;13.00;;;;;6.03;54.89;101629.50;6197019;23;45011;-85
2021/12/21 08:36:44;;;;;;;;;14.00;14.00;;;;;5.91;55.15;101613.06;6171194;23;45566;-86
2021/12/21 08:39:10;;;;;;;;;19.00;19.00;;;;;5.81;55.48;101623.16;6192689;23;44860;-85
2021/12/21 08:41:43;;;;;;;;;17.00;14.00;;;;;5.86;55.20;101604.94;6193682;23;45471;-84
2021/12/21 08:44:11;;;;;;;;;23.00;19.67;;;;;5.74;55.33;101604.34;6169016;23;46615;-85
2021/12/21 08:46:41;;;;;;;;;18.33;18.00;;;;;5.93;55.22;101591.16;6188522;23;45284;-84
2021/12/21 08:49:35;;;;;;;;;22.33;22.33;;;;;5.87;54.94;101579.44;6194815;23;45457;-85
2021/12/21 08:52:04;;;;;;;;;18.67;17.33;;;;;5.75;55.18;101575.38;6195798;22;45530;-86
2021/12/21 08:54:30;;;;;;;;;14.67;14.33;;;;;5.90;55.05;101616.50;6194228;23;45438;-85
2021/12/21 08:57:04;;;;;;;;;20.33;18.33;;;;;5.89;54.92;101572.47;6194997;23;45638;-82
2021/12/21 08:59:33;;;;;;;;;14.67;12.33;;;;;6.10;54.83;101621.06;6195869;23;44819;-84
2021/12/21 09:02:02;;;;;;;;;19.67;15.00;;;;;6.15;55.17;101634.47;6192633;23;44876;-86
2021/12/21 09:04:40;;;;;;;;;16.00;16.00;;;;;5.79;54.75;101611.63;6214775;22;46708;-86
2021/12/21 09:07:07;;;;;;;;;18.67;15.00;;;;;5.84;55.04;101589.81;6190766;23;45778;-84
2021/12/21 09:09:38;;;;;;;;;19.33;19.33;;;;;5.94;54.60;101621.13;6193021;22;45348;-85
2021/12/21 09:12:04;;;;;;;;;17.67;15.00;;;;;5.78;54.58;101586.09;6195919;22;45394;-85
2021/12/21 09:15:06;;;;;;;;;19.33;18.67;;;;;6.33;53.99;101631.75;6200686;23;48500;-85
2021/12/21 09:17:39;;;;;;;;;18.33;15.33;;;;;6.08;54.53;101627.06;6196343;22;44809;-85
2021/12/21 09:27:28;;;;;;;;;12.67;11.00;;;;;6.31;53.37;101636.06;6207190;22;44958;-86
2021/12/21 09:30:21;;;;;;;;;;;;;;;;;;;;;
2021/12/21 09:33:03;;;;;;;;;25.00;21.33;;;;;6.27;54.14;101639.41;6195240;23;67858;-85
2021/12/21 09:35:44;;;;;;;;;17.00;15.00;;;;;6.08;54.08;101596.31;6219428;22;44799;-84
2021/12/21 09:41:32;;;;;;;;;23.00;19.00;;;;;6.01;54.07;101631.16;6193900;23;45462;-85
2021/12/21 09:44:05;;;;;;;;;22.67;22.67;;;;;6.27;53.66;101634.13;6191719;23;44957;-84
2021/12/21 09:46:36;;;;;;;;;23.00;21.00;;;;;5.94;53.84;101590.34;6194936;23;45387;-85
2021/12/21 09:50:03;;;;;;;;;18.67;16.00;;;;;6.18;54.12;101608.16;6192756;23;45368;-85
2021/12/21 09:55:53;;;;;;;;;19.33;18.67;;;;;6.30;53.21;101652.75;6193434;23;45548;-85
2021/12/21 09:58:28;;;;;;;;;14.33;13.67;;;;;6.45;53.27;101648.16;6195283;23;44915;-83
2021/12/21 10:01:47;;;;;;;;;17.33;15.67;;;;;6.46;52.88;101655.25;6193288;23;47150;-83
2021/12/21 10:05:04;;;;;;;;;;;;;;;;;;;;;
2021/12/21 10:11:06;;;;;;;;;20.67;18.00;;;;;6.44;53.00;101633.13;6111661;23;45779;-84
2021/12/21 10:13:35;;;;;;;;;18.67;18.00;;;;;6.17;53.47;101594.06;6113395;23;46705;-85
2021/12/21 10:16:08;;;;;;;;;24.67;22.33;;;;;6.41;53.07;101630.38;6114420;23;44930;-83
2021/12/21 10:18:41;;;;;;;;;20.67;19.00;;;;;6.54;53.48;101652.97;6089715;23;44753;-84
2021/12/21 10:21:13;;;;;;;;;23.33;23.33;;;;;6.55;53.01;101642.47;6112235;23;45256;-84
2021/12/21 10:23:46;;;;;;;;;20.00;18.00;;;;;6.49;54.06;101642.19;6110063;23;47389;-84
2021/12/21 10:26:22;;;;;;;;;20.67;18.67;;;;;6.77;53.52;101651.34;6135295;23;45513;-85
2021/12/21 10:28:53;;;;;;;;;22.33;20.33;;;;;6.78;53.05;101645.22;6109210;23;45559;-84
2021/12/21 10:31:35;;;;;;;;;18.00;18.00;;;;;6.78;53.34;101626.72;6106214;23;44770;-85
2021/12/21 10:34:28;;;;;;;;;35.50;35.50;;;;;6.74;53.67;101600.97;6110279;23;47069;-84
2021/12/21 10:36:59;;;;;;;;;23.67;22.00;;;;;7.03;53.55;101620.75;6129730;23;45485;-83
2021/12/21 10:39:36;;;;;;;;;37.00;32.50;;;;;6.84;51.95;101592.59;6142799;23;44690;-82
2021/12/21 10:45:47;;;;;;;;;21.00;16.33;;;;;7.12;52.09;101628.16;6169125;23;45763;-84
2021/12/21 10:48:18;;;;;;;;;21.33;19.67;;;;;7.13;53.06;101627.31;6138449;23;45373;-83
2021/12/21 10:50:46;;;;;;;;;21.00;21.00;;;;;6.81;53.53;101577.53;6163436;23;45350;-83
2021/12/21 10:53:38;;;;;;;;;;;;;;;;;;;;;
2021/12/21 10:56:07;;;;;;;;;31.33;23.33;;;;;7.36;52.06;101634.47;6165034;23;75121;-83
2021/12/21 10:58:46;;;;;;;;;24.33;23.33;;;;;7.21;51.63;101604.72;6163709;23;45538;-83
2021/12/21 11:01:16;;;;;;;;;27.33;25.33;;;;;7.31;51.53;101630.75;6137510;23;45313;-82
2021/12/21 11:03:56;;;;;;;;;24.00;23.00;;;;;7.03;51.76;101582.81;6164879;23;44851;-82
2021/12/21 11:06:32;;;;;;;;;22.33;20.00;;;;;7.30;51.98;101630.69;6135779;23;47262;-81
2021/12/21 11:09:04;;;;;;;;;34.33;27.67;;;;;6.96;52.16;101565.78;6137996;23;45443;-83
2021/12/21 11:11:37;;;;;;;;;22.67;19.67;;;;;7.10;52.54;101584.88;6174910;23;45761;-82
2021/12/21 11:14:31;;;;;;;;;23.33;19.67;;;;;7.54;52.59;101622.84;6197376;22;44942;-83
2021/12/21 11:17:05;;;;;;;;;28.67;24.67;;;;;7.40;51.95;101611.69;6193886;23;45459;-81
2021/12/21 11:19:42;;;;;;;;;29.00;27.00;;;;;7.58;51.36;101616.84;6195787;23;45594;-83
2021/12/21 11:23:04;;;;;;;;;28.33;25.00;;;;;7.69;52.01;101614.59;6198485;23;45334;-81
2021/12/21 11:25:37;;;;;;;;;23.67;23.67;;;;;7.49;52.26;101590.88;6196356;23;44789;-83
2021/12/21 11:28:05;;;;;;;;;24.67;23.67;;;;;7.52;52.06;101606.00;6192922;23;45653;-83
2021/12/21 11:30:34;;;;;;;;;26.00;22.33;;;;;7.58;52.03;101590.38;6200346;23;45361;-83
2021/12/21 11:33:05;;;;;;;;;19.67;19.67;;;;;7.39;51.33;101563.16;6195831;23;45322;-83
2021/12/21 11:38:07;;;;;;;;;24.67;21.00;;;;;7.54;51.10;101601.69;6194276;22;46134;-83
2021/12/21 11:44:35;;;;;;;;;25.33;20.67;;;;;7.69;51.27;101602.25;6192468;23;45660;-83
2021/12/21 11:47:12;;;;;;;;;29.00;24.67;;;;;7.33;51.76;101556.72;6195908;23;45492;-85
2021/12/21 11:49:45;;;;;;;;;28.33;23.00;;;;;7.47;51.59;101571.38;6199926;23;45168;-84
2021/12/21 11:52:14;;;;;;;;;23.33;18.67;;;;;7.55;50.80;101596.44;6197748;23;44852;-85
2021/12/21 11:54:46;;;;;;;;;31.33;26.00;;;;;7.62;51.43;101592.28;6194659;23;45501;-83
2021/12/21 11:57:41;;;;;;;;;24.33;23.67;;;;;7.30;51.55;101551.31;6195058;22;45773;-82
2021/12/21 12:00:12;;;;;;;;;23.67;21.33;;;;;7.53;52.23;101579.56;6192428;23;46837;-83
2021/12/21 12:02:48;;;;;;;;;21.67;21.00;;;;;7.24;51.45;101564.28;6194688;23;45626;-84
2021/12/21 12:13:18;;;;;;;;;23.33;23.00;;;;;7.69;50.62;101578.44;6114215;23;45757;-83
2021/12/21 12:16:38;;;;;;;;;;;;;;;;;;;;;
2021/12/21 12:19:12;;;;;;;;;29.67;27.00;;;;;7.49;51.50;101558.22;6100830;23;67979;-83
2021/12/21 12:22:06;;;;;;;;;28.33;24.00;;;;;7.49;52.35;101548.53;6102987;23;45115;-85
2021/12/21 12:25:05;;;;;;;;;29.33;27.67;;;;;7.83;51.41;101555.16;6108798;23;45476;-86
2021/12/21 12:27:47;;;;;;;;;25.00;23.33;;;;;7.85;51.67;101555.22;6082339;23;45495;-84
2021/12/21 12:30:29;;;;;;;;;26.67;25.33;;;;;7.80;50.73;101550.63;6124277;23;45465;-85
2021/12/21 12:33:07;;;;;;;;;33.00;31.00;;;;;7.76;51.52;101547.81;6134375;23;45350;-83
2021/12/21 12:35:37;;;;;;;;;22.67;22.67;;;;;7.57;50.90;101532.97;6107614;23;47324;-84
2021/12/21 12:41:45;;;;;;;;;25.67;25.67;;;;;7.58;51.26;101524.19;6134200;23;45397;-85
2021/12/21 12:44:45;;;;;;;;;;;;;;;;;;;;;
2021/12/21 12:50:39;;;;;;;;;31.00;30.33;;;;;7.90;50.77;101533.38;6182972;23;45389;-83
2021/12/21 12:53:06;;;;;;;;;24.67;21.00;;;;;7.63;51.68;101504.06;6169494;23;45629;-82
2021/12/21 12:55:58;;;;;;;;;29.33;27.67;;;;;7.96;51.69;101522.09;6175350;23;44944;-84
2021/12/21 12:58:26;;;;;;;;;31.67;30.33;;;;;7.92;51.73;101517.53;6199004;23;45225;-83
2021/12/21 13:01:20;;;;;;;;;28.33;25.33;;;;;8.15;50.95;101521.91;6166982;23;45410;-84
2021/12/21 13:03:45;;;;;;;;;33.00;31.33;;;;;7.86;50.88;101527.88;6169040;23;45839;-84
2021/12/21 13:06:15;;;;;;;;;33.33;25.33;;;;;7.96;50.86;101520.34;6169923;23;45454;-83
2021/12/21 13:09:30;;;;;;;;;;;;;;;;;;;;;
2021/12/21 13:12:34;;;;;;;;;;;;;;;;;;;;;
2021/12/21 13:15:08;;;;;;;;;28.33;26.00;;;;;7.70;50.93;101508.78;6042036;23;68065;-83
2021/12/21 13:17:44;;;;;;;;;24.00;22.00;;;;;7.64;51.33;101482.06;6021176;23;45389;-83
2021/12/21 13:20:39;;;;;;;;;24.33;23.67;;;;;7.80;51.22;101460.59;6045018;23;44963;-84
2021/12/21 13:23:32;;;;;;;;;35.67;26.33;;;;;8.10;50.09;101512.91;6022541;23;45562;-84
2021/12/21 13:26:18;;;;;;;;;26.67;25.00;;;;;8.04;49.91;101511.75;6023155;23;45035;-83
2021/12/21 13:29:16;;;;;;;;;22.33;20.00;;;;;8.01;50.74;101513.47;6049851;23;44785;-83
2021/12/21 13:32:08;;;;;;;;;32.67;28.00;;;;;7.73;50.70;101465.63;6024658;23;46765;-84
2021/12/21 13:35:10;;;;;;;;;25.67;22.33;;;;;7.77;50.14;101468.41;6049875;23;45417;-84
2021/12/21 13:37:46;;;;;;;;;25.33;22.00;;;;;7.79;50.90;101484.38;5962713;23;45900;-85
2021/12/21 13:40:16;;;;;;;;;21.67;20.00;;;;;7.98;51.17;101491.28;5963328;23;45475;-83
2021/12/21 13:42:42;;;;;;;;;28.67;23.33;;;;;7.58;51.75;101450.06;5961660;23;45709;-84
2021/12/21 13:45:10;;;;;;;;;26.67;25.33;;;;;7.92;50.84;101464.56;5961605;23;45454;-82
2021/12/21 13:47:43;;;;;;;;;27.67;23.33;;;;;7.82;51.60;101443.03;5973699;23;44847;-83
2021/12/21 13:50:29;;;;;;;;;26.67;24.00;;;;;7.92;51.43;101443.38;6022822;23;45405;-85
2021/12/21 13:53:04;;;;;;;;;32.33;27.00;;;;;7.94;51.13;101439.03;6045745;23;47084;-84